createdAt,value
2022-11-23T00:01:35.936Z,97.16
2022-11-23T00:04:05.602Z,97.39
2022-11-23T00:06:32.861Z,97.24
2022-11-23T00:08:59.450Z,97.06
2022-11-23T00:11:27.286Z,97.12
2022-11-23T00:13:54.796Z,97.34
2022-11-23T00:16:24.034Z,96.97
2022-11-23T00:18:54.335Z,97.00
2022-11-23T00:21:24.319Z,97.07
2022-11-23T00:23:50.828Z,96.87
2022-11-23T00:26:18.527Z,97.04
2022-11-23T00:28:45.462Z,96.98
2022-11-23T00:31:17.415Z,96.90
2022-11-23T00:33:49.016Z,97.14
2022-11-23T00:36:16.314Z,96.87
2022-11-23T00:38:43.841Z,96.92
2022-11-23T00:41:13.622Z,96.96
2022-11-23T00:43:39.974Z,96.85
2022-11-23T00:46:17.116Z,96.82
2022-11-23T00:48:46.055Z,96.93
2022-11-23T00:51:15.687Z,96.63
2022-11-23T00:53:43.069Z,96.76
2022-11-23T00:56:10.548Z,96.57
2022-11-23T00:58:38.790Z,96.62
2022-11-23T01:01:11.990Z,96.70
2022-11-23T01:03:41.771Z,96.65
2022-11-23T01:06:13.846Z,96.60
2022-11-23T01:08:40.804Z,96.60
2022-11-23T01:11:10.632Z,96.60
2022-11-23T01:13:38.758Z,96.37
2022-11-23T01:16:07.671Z,96.11
2022-11-23T01:18:33.984Z,96.37
2022-11-23T01:21:01.635Z,96.05
2022-11-23T02:33:43.255Z,95.35
2022-11-23T02:36:31.399Z,95.47
2022-11-23T02:39:01.572Z,95.49
2022-11-23T02:41:27.934Z,95.48
2022-11-23T02:43:56.766Z,95.44
2022-11-23T02:49:03.416Z,95.31
2022-11-23T02:51:29.725Z,95.17
2022-11-23T02:53:56.112Z,95.24
2022-11-23T02:56:22.459Z,95.26
2022-11-23T02:58:48.865Z,94.98
2022-11-23T03:01:15.672Z,94.92
2022-11-23T03:03:42.122Z,94.87
2022-11-23T03:06:08.501Z,94.66
2022-11-23T03:08:34.871Z,94.62
2022-11-23T03:11:02.120Z,94.80
2022-11-23T03:13:28.478Z,94.64
2022-11-23T03:15:56.874Z,94.54
2022-11-23T03:18:23.781Z,94.48
2022-11-23T03:20:50.184Z,94.23
2022-11-23T03:23:16.532Z,94.22
2022-11-23T03:25:42.910Z,94.26
2022-11-23T03:28:09.286Z,94.29
2022-11-23T03:30:35.755Z,93.79
2022-11-23T03:33:02.131Z,94.11
2022-11-23T03:35:28.545Z,93.85
2022-11-23T03:37:54.922Z,94.06
2022-11-23T03:40:21.299Z,93.85
2022-11-23T03:42:47.696Z,93.78
2022-11-23T03:45:14.069Z,93.71
2022-11-23T03:47:40.496Z,93.67
2022-11-23T03:50:07.296Z,93.77
2022-11-23T03:52:33.611Z,93.66
2022-11-23T03:54:59.961Z,93.51
2022-11-23T03:57:26.366Z,93.38
2022-11-23T03:59:52.672Z,93.33
2022-11-23T04:02:19.098Z,93.37
2022-11-23T04:04:45.485Z,93.38
2022-11-23T04:07:11.944Z,93.43
2022-11-23T04:09:38.287Z,93.51
2022-11-23T04:12:05.034Z,93.61
2022-11-23T04:14:31.448Z,93.35
2022-11-23T04:16:57.909Z,93.54
2022-11-23T04:19:24.291Z,93.41
2022-11-23T04:21:50.645Z,93.55
2022-11-23T04:24:16.953Z,93.48
2022-11-23T04:26:43.266Z,93.37
2022-11-23T04:29:09.605Z,93.49
2022-11-23T04:31:36.098Z,93.46
2022-11-23T04:34:02.741Z,93.24
2022-11-23T04:36:29.259Z,93.15
2022-11-23T04:38:55.851Z,93.50
2022-11-23T04:41:22.907Z,93.17
2022-11-23T04:43:49.398Z,93.32
2022-11-23T04:46:15.868Z,93.12
2022-11-23T04:48:42.191Z,93.07
2022-11-23T04:51:08.625Z,93.02
2022-11-23T04:53:35.009Z,92.93
2022-11-23T04:56:01.790Z,93.47
2022-11-23T04:58:30.285Z,93.21
2022-11-23T05:01:00.806Z,93.19
2022-11-23T05:03:27.213Z,93.20
2022-11-23T05:05:53.941Z,92.79
2022-11-23T05:08:20.262Z,93.09
2022-11-23T05:10:46.707Z,93.08
2022-11-23T05:13:13.133Z,93.14
2022-11-23T05:15:39.480Z,92.71
2022-11-23T05:18:07.639Z,93.06
2022-11-23T05:20:34.694Z,93.05
2022-11-23T05:23:01.013Z,93.14
2022-11-23T05:25:27.367Z,93.15
2022-11-23T05:27:53.721Z,93.21
2022-11-23T05:30:20.520Z,93.24
2022-11-23T05:32:47.093Z,93.13
2022-11-23T05:35:14.311Z,93.36
2022-11-23T05:37:41.574Z,93.00
2022-11-23T05:40:08.956Z,93.07
2022-11-23T05:42:35.462Z,93.03
2022-11-23T05:45:01.848Z,92.78
2022-11-23T05:47:28.278Z,92.81
2022-11-23T05:49:54.710Z,93.05
2022-11-23T05:52:21.085Z,92.98
2022-11-23T05:54:47.434Z,92.84
2022-11-23T05:57:15.783Z,92.58
2022-11-23T05:59:42.171Z,92.43
2022-11-23T06:02:08.593Z,92.51
2022-11-23T06:04:34.977Z,92.51
2022-11-23T06:07:01.421Z,92.53
2022-11-23T06:09:28.609Z,92.39
2022-11-23T06:11:55.218Z,92.20
2022-11-23T06:14:21.622Z,92.20
2022-11-23T06:16:48.034Z,92.18
2022-11-23T06:19:14.541Z,92.00
2022-11-23T06:21:41.728Z,91.84
2022-11-23T06:24:11.129Z,92.12
2022-11-23T06:26:37.500Z,91.82
2022-11-23T06:29:03.873Z,91.97
2022-11-23T06:31:30.246Z,91.83
2022-11-23T06:33:56.808Z,91.67
2022-11-23T06:36:23.185Z,91.64
2022-11-23T06:38:49.567Z,91.50
2022-11-23T06:41:15.980Z,91.20
2022-11-23T06:43:42.349Z,91.25
2022-11-23T06:46:10.362Z,91.12
2022-11-23T06:48:36.679Z,91.14
2022-11-23T06:51:03.203Z,90.86
2022-11-23T06:53:30.070Z,91.12
2022-11-23T06:56:00.659Z,90.93
2022-11-23T06:58:27.301Z,90.81
2022-11-23T07:00:53.844Z,90.83
2022-11-23T07:03:23.005Z,90.80
2022-11-23T07:05:49.734Z,90.66
2022-11-23T07:08:16.355Z,90.93
2022-11-23T07:10:42.695Z,90.88
2022-11-23T07:13:10.136Z,91.23
2022-11-23T07:15:37.437Z,90.95
2022-11-23T07:18:04.738Z,90.97
2022-11-23T07:20:31.719Z,91.30
2022-11-23T07:23:06.406Z,91.30
2022-11-23T07:25:34.610Z,91.34
2022-11-23T07:28:02.618Z,91.54
2022-11-23T07:30:31.041Z,91.64
2022-11-23T07:33:01.703Z,91.63
2022-11-23T07:35:28.210Z,91.72
2022-11-23T07:37:54.625Z,91.73
2022-11-23T07:40:21.161Z,91.81
2022-11-23T07:42:47.558Z,92.03
2022-11-23T07:45:14.080Z,91.87
2022-11-23T07:47:40.431Z,91.78
2022-11-23T07:50:08.091Z,91.88
2022-11-23T07:52:36.286Z,91.79
2022-11-23T07:55:02.813Z,91.70
2022-11-23T07:57:29.174Z,91.55
2022-11-23T07:59:55.588Z,91.48
2022-11-23T08:02:22.152Z,91.52
2022-11-23T08:04:48.756Z,91.58
2022-11-23T08:07:15.182Z,91.53
2022-11-23T08:09:41.569Z,91.47
2022-11-23T08:12:07.888Z,91.44
2022-11-23T08:14:34.951Z,91.00
2022-11-23T08:17:01.606Z,91.28
2022-11-23T08:19:27.935Z,91.12
2022-11-23T08:21:54.282Z,90.90
2022-11-23T08:24:20.650Z,90.65
2022-11-23T08:26:47.054Z,90.70
2022-11-23T08:29:13.414Z,90.65
2022-11-23T08:31:39.847Z,90.30
2022-11-23T08:34:06.184Z,90.11
2022-11-23T08:36:32.491Z,89.92
2022-11-23T08:38:58.801Z,89.86
2022-11-23T08:41:25.475Z,89.86
2022-11-23T08:43:51.832Z,89.69
2022-11-23T08:46:18.198Z,89.71
2022-11-23T08:48:44.576Z,89.45
2022-11-23T08:51:11.712Z,89.18
2022-11-23T08:53:38.314Z,89.10
2022-11-23T08:56:06.282Z,88.75
2022-11-23T08:58:34.379Z,88.76
2022-11-23T09:01:00.745Z,88.08
2022-11-23T09:03:27.076Z,88.16
2022-11-23T09:05:54.591Z,88.19
2022-11-23T09:08:21.130Z,87.75
2022-11-23T09:10:47.501Z,87.52
2022-11-23T09:13:14.077Z,87.39
2022-11-23T09:15:40.440Z,87.17
2022-11-23T09:18:06.805Z,87.13
2022-11-23T09:20:33.202Z,87.15
2022-11-23T09:22:59.508Z,86.65
2022-11-23T09:25:25.899Z,86.00
2022-11-23T09:28:01.797Z,85.82
2022-11-23T09:30:28.265Z,85.52
2022-11-23T09:32:58.040Z,84.22
2022-11-23T09:35:25.321Z,83.92
2022-11-23T09:37:58.513Z,84.13
2022-11-23T09:40:30.425Z,84.09
2022-11-23T09:43:21.045Z,83.44
2022-11-23T09:45:51.562Z,82.48
2022-11-23T09:48:31.247Z,82.26
2022-11-23T09:51:06.213Z,81.27
2022-11-23T09:53:47.836Z,81.16
2022-11-23T09:56:25.513Z,80.92
2022-11-23T09:58:56.086Z,79.58
2022-11-23T10:01:22.705Z,79.52
2022-11-23T10:03:49.611Z,78.70
2022-11-23T10:06:27.960Z,79.15
2022-11-23T10:09:13.118Z,78.96
2022-11-23T10:11:49.749Z,77.90
2022-11-23T10:14:23.916Z,77.43
2022-11-23T10:17:02.720Z,77.94
2022-11-23T10:19:47.595Z,77.26
2022-11-23T10:22:28.598Z,77.55
2022-11-23T10:24:54.958Z,77.46
2022-11-23T10:27:23.942Z,77.49
2022-11-23T10:29:52.487Z,77.05
2022-11-23T10:33:00.655Z,76.79
2022-11-23T10:35:33.172Z,76.54
2022-11-23T10:38:18.775Z,76.23
2022-11-23T10:41:06.819Z,75.71
2022-11-23T10:43:45.035Z,75.31
2022-11-23T10:46:23.706Z,75.35
2022-11-23T10:48:51.599Z,75.19
2022-11-23T10:51:29.894Z,74.87
2022-11-23T10:54:05.111Z,75.12
2022-11-23T10:56:32.999Z,74.75
2022-11-23T10:58:59.381Z,75.06
2022-11-23T11:01:29.595Z,74.34
2022-11-23T11:04:03.313Z,75.56
2022-11-23T11:06:33.551Z,75.38
2022-11-23T11:09:09.523Z,74.73
2022-11-23T11:11:40.351Z,74.72
2022-11-23T11:14:14.419Z,74.60
2022-11-23T11:16:52.434Z,75.24
2022-11-23T11:19:33.005Z,75.09
2022-11-23T11:22:20.204Z,75.22
2022-11-23T11:24:47.200Z,75.93
2022-11-23T11:27:16.979Z,75.73
2022-11-23T11:29:43.287Z,75.88
2022-11-23T11:32:31.269Z,75.79
2022-11-23T11:35:08.555Z,75.82
2022-11-23T11:37:42.512Z,76.36
2022-11-23T11:40:30.255Z,75.92
2022-11-23T11:43:09.282Z,76.29
2022-11-23T11:46:06.445Z,75.99
2022-11-23T11:48:39.806Z,75.82
2022-11-23T11:51:17.498Z,75.79
2022-11-23T11:53:47.611Z,75.64
2022-11-23T11:56:25.834Z,75.48
2022-11-23T11:59:00.284Z,74.78
2022-11-23T12:01:38.152Z,75.28
2022-11-23T12:04:08.240Z,74.14
2022-11-23T12:06:48.978Z,73.59
2022-11-23T12:09:31.604Z,73.25
2022-11-23T12:11:58.796Z,73.61
2022-11-23T12:14:25.476Z,72.69
2022-11-23T12:17:17.050Z,73.34
2022-11-23T12:20:18.800Z,73.07
2022-11-23T12:23:03.909Z,72.99
2022-11-23T12:25:40.660Z,73.00
2022-11-23T12:28:28.462Z,72.56
2022-11-23T12:31:17.721Z,72.69
2022-11-23T12:33:59.187Z,72.41
2022-11-23T12:36:31.565Z,71.13
2022-11-23T12:39:18.137Z,72.48
2022-11-23T12:41:53.625Z,71.90
2022-11-23T12:44:49.650Z,71.73
2022-11-23T12:47:40.240Z,71.74
2022-11-23T12:50:31.067Z,71.82
2022-11-23T12:53:06.798Z,71.87
2022-11-23T12:56:00.326Z,71.35
2022-11-23T12:58:32.394Z,71.42
2022-11-23T13:01:06.029Z,70.90
2022-11-23T13:03:57.124Z,71.49
2022-11-23T13:06:46.751Z,71.79
2022-11-23T13:09:53.127Z,71.49
2022-11-23T13:12:31.620Z,71.74
2022-11-23T13:15:18.764Z,72.08
2022-11-23T13:18:19.531Z,71.76
2022-11-23T13:21:04.605Z,72.42
2022-11-23T13:23:39.071Z,72.86
2022-11-23T13:26:15.243Z,71.97
2022-11-23T13:28:42.393Z,72.71
2022-11-23T13:31:20.614Z,72.79
2022-11-23T13:33:49.305Z,73.11
2022-11-23T13:37:11.744Z,72.93
2022-11-23T13:39:45.250Z,72.89
2022-11-23T13:42:12.834Z,72.78
2022-11-23T13:44:39.367Z,73.11
2022-11-23T13:47:18.292Z,73.06
2022-11-23T13:49:45.939Z,73.77
2022-11-23T13:52:21.277Z,73.70
2022-11-23T13:54:55.949Z,74.08
2022-11-23T13:57:22.790Z,75.59
2022-11-23T13:59:49.143Z,76.93
2022-11-23T14:02:28.149Z,78.72
2022-11-23T14:05:31.050Z,80.06
2022-11-23T14:08:00.266Z,81.21
2022-11-23T14:10:31.689Z,82.25
2022-11-23T14:13:09.104Z,82.87
2022-11-23T14:15:38.837Z,84.42
2022-11-23T14:18:23.328Z,85.27
2022-11-23T14:20:57.285Z,85.52
2022-11-23T14:23:28.878Z,86.23
2022-11-23T14:26:14.331Z,86.53
2022-11-23T14:29:00.828Z,86.85
2022-11-23T14:31:46.062Z,87.66
2022-11-23T14:34:31.491Z,87.72
2022-11-23T14:37:47.683Z,88.21
2022-11-23T14:40:46.046Z,88.67
2022-11-23T14:43:19.554Z,88.93
2022-11-23T14:45:47.333Z,89.03
2022-11-23T14:48:40.791Z,89.53
2022-11-23T14:51:13.756Z,89.47
2022-11-23T14:53:47.433Z,90.05
2022-11-23T14:56:48.070Z,90.08
2022-11-23T14:59:17.409Z,90.24
2022-11-23T15:01:51.410Z,90.38
2022-11-23T15:04:34.825Z,90.34
2022-11-23T15:07:09.964Z,90.37
2022-11-23T15:09:39.316Z,90.96
2022-11-23T15:12:25.981Z,91.07
2022-11-23T15:14:54.063Z,91.05
2022-11-23T15:17:22.062Z,91.38
2022-11-23T15:19:59.942Z,91.70
2022-11-23T15:22:28.454Z,92.01
2022-11-23T15:25:05.358Z,91.83
2022-11-23T15:27:31.794Z,92.08
2022-11-23T15:30:00.570Z,92.08
2022-11-23T15:32:33.834Z,92.16
2022-11-23T15:35:06.552Z,92.26
2022-11-23T15:37:44.841Z,92.29
2022-11-23T15:40:13.717Z,92.54
2022-11-23T15:42:40.810Z,92.82
2022-11-23T15:45:37.916Z,93.02
2022-11-23T15:48:10.741Z,93.17
2022-11-23T15:50:46.646Z,93.05
2022-11-23T15:53:13.580Z,93.16
2022-11-23T15:55:40.305Z,93.38
2022-11-23T15:58:08.977Z,93.21
2022-11-23T16:00:36.432Z,93.59
2022-11-23T16:03:55.381Z,93.40
2022-11-23T16:06:28.214Z,93.44
2022-11-23T16:08:54.566Z,93.60
2022-11-23T16:11:30.102Z,93.49
2022-11-23T16:14:14.755Z,93.61
2022-11-23T16:16:45.798Z,93.82
2022-11-23T16:19:31.204Z,94.01
2022-11-23T16:22:02.733Z,93.78
2022-11-23T16:24:32.085Z,93.98
2022-11-23T16:26:59.458Z,93.85
2022-11-23T16:29:29.525Z,94.08
2022-11-23T16:32:07.609Z,94.16
2022-11-23T16:34:34.568Z,94.42
2022-11-23T16:37:03.711Z,94.59
2022-11-23T16:39:30.080Z,94.26
2022-11-23T16:41:56.446Z,94.42
2022-11-23T16:44:22.788Z,94.63
2022-11-23T16:46:49.197Z,94.66
2022-11-23T16:49:21.675Z,94.50
2022-11-23T16:51:57.188Z,94.53
2022-11-23T16:54:25.472Z,94.43
2022-11-23T16:56:52.247Z,94.55
2022-11-23T16:59:19.582Z,94.41
2022-11-23T17:01:51.284Z,94.57
2022-11-23T17:04:20.513Z,94.64
2022-11-23T17:06:47.092Z,94.64
2022-11-23T17:09:13.475Z,94.68
2022-11-23T17:11:46.393Z,94.57
2022-11-23T17:14:18.483Z,94.62
2022-11-23T17:16:46.506Z,94.53
2022-11-23T17:19:18.013Z,94.69
2022-11-23T17:21:44.808Z,94.76
2022-11-23T17:24:12.751Z,94.89
2022-11-23T17:26:42.790Z,94.88
2022-11-23T17:29:19.425Z,94.69
2022-11-23T17:31:50.335Z,94.72
2022-11-23T17:34:17.013Z,94.83
2022-11-23T17:36:45.644Z,94.73
2022-11-23T17:39:24.607Z,94.74
2022-11-23T17:41:51.026Z,94.48
2022-11-23T17:44:18.179Z,94.61
2022-11-23T17:46:45.775Z,94.33
2022-11-23T17:49:14.785Z,94.65
2022-11-23T17:51:41.234Z,94.58
2022-11-23T17:54:07.706Z,94.54
2022-11-23T17:56:34.140Z,94.76
2022-11-23T17:59:00.823Z,94.75
2022-11-23T18:01:27.344Z,94.49
2022-11-23T18:03:53.819Z,94.69
2022-11-23T18:06:23.100Z,94.64
2022-11-23T18:08:51.516Z,94.66
2022-11-23T18:11:19.217Z,94.91
2022-11-23T18:13:47.407Z,94.64
2022-11-23T18:16:14.234Z,94.51
2022-11-23T18:18:40.651Z,94.65
2022-11-23T18:21:07.967Z,94.57
2022-11-23T18:23:34.357Z,94.43
2022-11-23T18:26:12.662Z,94.38
2022-11-23T18:28:39.027Z,94.42
2022-11-23T18:31:05.531Z,94.44
2022-11-23T18:33:32.113Z,94.15
2022-11-23T18:36:04.862Z,94.18
2022-11-23T18:38:32.571Z,94.27
2022-11-23T18:40:58.951Z,94.17
2022-11-23T18:43:25.396Z,94.21
2022-11-23T18:45:51.723Z,94.37
2022-11-23T18:48:18.058Z,94.21
2022-11-23T18:50:44.750Z,94.35
2022-11-23T18:53:11.666Z,94.18
2022-11-23T18:55:37.981Z,94.19
2022-11-23T18:58:04.343Z,94.38
2022-11-23T19:00:30.766Z,94.39
2022-11-23T19:03:00.408Z,94.36
2022-11-23T19:05:30.235Z,94.27
2022-11-23T19:08:04.118Z,94.24
2022-11-23T19:10:36.632Z,94.64
2022-11-23T19:13:05.736Z,94.43
2022-11-23T19:15:32.719Z,94.46
2022-11-23T19:17:59.328Z,94.42
2022-11-23T19:20:25.738Z,94.54
2022-11-23T19:22:52.443Z,94.50
2022-11-23T19:25:19.214Z,94.50
2022-11-23T19:27:46.696Z,94.74
2022-11-23T19:30:14.150Z,94.82
2022-11-23T19:32:40.515Z,94.81
2022-11-23T19:35:07.548Z,94.99
2022-11-23T19:37:37.242Z,94.88
2022-11-23T19:40:03.954Z,95.05
2022-11-23T19:42:30.483Z,94.95
2022-11-23T19:44:56.877Z,94.84
2022-11-23T19:47:23.234Z,94.83
2022-11-23T19:49:49.704Z,95.00
2022-11-23T19:52:16.261Z,94.88
2022-11-23T19:54:42.760Z,95.07
2022-11-23T19:57:09.305Z,94.96
2022-11-23T19:59:36.109Z,95.05
2022-11-23T20:02:02.666Z,95.17
2022-11-23T20:04:29.146Z,95.10
2022-11-23T20:06:55.568Z,95.05
2022-11-23T20:09:23.555Z,95.12
2022-11-23T20:11:51.528Z,95.08
2022-11-23T20:14:18.391Z,94.99
2022-11-23T20:16:44.800Z,95.05
2022-11-23T20:19:11.271Z,95.17
2022-11-23T20:21:38.265Z,95.38
2022-11-23T20:24:07.357Z,95.17
2022-11-23T20:26:36.285Z,95.30
2022-11-23T20:29:03.897Z,95.19
2022-11-23T20:31:31.561Z,95.29
2022-11-23T20:33:58.760Z,95.48
2022-11-23T20:36:27.469Z,95.53
2022-11-23T20:38:54.290Z,95.40
2022-11-23T20:41:26.703Z,95.41
2022-11-23T20:44:01.019Z,95.45
2022-11-23T20:46:59.798Z,95.50
2022-11-23T20:49:17.075Z,95.60
2022-11-23T20:51:43.384Z,95.77
2022-11-23T20:54:09.870Z,95.79
2022-11-23T20:56:38.666Z,95.75
2022-11-23T20:59:04.982Z,95.68
2022-11-23T21:01:31.384Z,95.50
2022-11-23T21:03:59.386Z,95.75
2022-11-23T21:06:26.871Z,95.54
2022-11-23T21:08:53.546Z,95.79
2022-11-23T21:11:40.385Z,95.80
2022-11-23T21:14:17.470Z,95.95
2022-11-23T21:16:49.101Z,95.94
2022-11-23T21:19:15.542Z,96.08
2022-11-23T21:21:42.292Z,95.86
2022-11-23T21:24:09.076Z,95.93
2022-11-23T21:26:35.756Z,96.07
2022-11-23T21:29:04.028Z,95.98
2022-11-23T21:31:30.786Z,96.14
2022-11-23T21:34:05.016Z,95.97
2022-11-23T21:36:35.230Z,96.19
2022-11-23T21:39:06.456Z,96.14
2022-11-23T21:41:33.098Z,95.98
2022-11-23T21:43:59.426Z,95.94
2022-11-23T21:46:26.517Z,96.15
2022-11-23T21:48:55.354Z,96.12
2022-11-23T21:51:23.209Z,96.32
2022-11-23T21:53:49.568Z,95.95
2022-11-23T21:56:17.590Z,96.28
2022-11-23T21:58:44.294Z,96.19
2022-11-23T22:01:13.906Z,96.14
2022-11-23T22:03:52.284Z,96.40
2022-11-23T22:06:20.905Z,96.22
2022-11-23T22:08:52.478Z,96.16
2022-11-23T22:11:21.633Z,96.19
2022-11-23T22:13:52.098Z,96.14
2022-11-23T22:16:23.843Z,96.04
2022-11-23T22:18:55.375Z,96.23
2022-11-23T22:21:24.275Z,96.22
2022-11-23T22:23:50.898Z,96.12
2022-11-23T22:26:18.853Z,96.26
2022-11-23T22:28:48.956Z,96.18
2022-11-23T22:31:20.476Z,96.14
2022-11-23T22:33:48.006Z,96.25
2022-11-23T22:36:19.734Z,95.97
2022-11-23T22:38:46.616Z,96.08
2022-11-23T22:41:17.255Z,96.11
2022-11-23T22:43:43.737Z,96.09
2022-11-23T22:46:12.789Z,96.12
2022-11-23T22:48:40.543Z,95.82
2022-11-23T22:51:08.868Z,96.01
2022-11-23T22:53:44.015Z,96.11
2022-11-23T22:56:16.519Z,95.71
2022-11-23T22:58:43.585Z,95.99
2022-11-23T23:01:14.976Z,95.95
2022-11-23T23:03:42.490Z,96.17
2022-11-23T23:06:19.017Z,96.11
2022-11-23T23:08:47.011Z,96.16
2022-11-23T23:11:14.745Z,96.15
2022-11-23T23:13:41.990Z,96.13
2022-11-23T23:16:11.684Z,96.10
2022-11-23T23:18:38.837Z,96.05
2022-11-23T23:21:10.859Z,95.76
2022-11-23T23:23:38.722Z,95.56
2022-11-23T23:26:06.119Z,95.75
2022-11-23T23:28:33.477Z,95.77
2022-11-23T23:31:08.240Z,95.51
2022-11-23T23:33:35.078Z,95.54
2022-11-23T23:36:06.821Z,95.54
2022-11-23T23:38:33.649Z,95.13
2022-11-23T23:41:00.897Z,95.57
2022-11-23T23:43:28.335Z,95.36
2022-11-23T23:45:59.540Z,95.49
2022-11-23T23:48:29.249Z,95.33
2022-11-23T23:50:55.815Z,95.45
2022-11-23T23:53:22.587Z,95.50
2022-11-23T23:55:59.687Z,95.35
2022-11-23T23:58:26.253Z,95.44
